createdAt,value
2023-05-06T00:02:22.547Z,77.90
2023-05-06T00:04:52.331Z,77.90
2023-05-06T00:07:20.842Z,77.70
2023-05-06T00:09:49.790Z,77.80
2023-05-06T00:12:18.677Z,77.80
2023-05-06T00:14:47.314Z,77.80
2023-05-06T00:17:17.851Z,77.80
2023-05-06T00:19:46.278Z,77.70
2023-05-06T00:22:16.443Z,77.70
2023-05-06T00:24:47.797Z,77.70
2023-05-06T00:27:18.548Z,77.60
2023-05-06T00:29:47.532Z,77.60
2023-05-06T00:32:19.661Z,77.70
2023-05-06T00:34:50.693Z,77.60
2023-05-06T00:37:19.282Z,77.60
2023-05-06T00:39:48.964Z,77.60
2023-05-06T00:42:18.616Z,77.70
2023-05-06T00:44:49.277Z,77.70
2023-05-06T00:47:20.578Z,77.90
2023-05-06T00:49:51.675Z,78.00
2023-05-06T00:52:21.379Z,78.10
2023-05-06T00:54:50.458Z,78.10
2023-05-06T00:57:21.272Z,78.30
2023-05-06T00:59:49.673Z,78.40
2023-05-06T01:02:20.325Z,78.40
2023-05-06T01:04:49.007Z,78.40
2023-05-06T01:07:26.213Z,78.50
2023-05-06T01:10:18.845Z,78.50
2023-05-06T01:12:55.850Z,78.60
2023-05-06T01:15:35.183Z,78.50
2023-05-06T01:18:10.936Z,78.60
2023-05-06T01:20:42.053Z,78.50
2023-05-06T01:23:13.824Z,78.50
2023-05-06T01:25:43.097Z,78.60
2023-05-06T01:28:14.424Z,78.70
2023-05-06T01:30:54.953Z,78.60
2023-05-06T01:33:30.794Z,78.80
2023-05-06T01:36:10.554Z,78.80
2023-05-06T01:38:47.109Z,78.30
2023-05-06T01:41:19.356Z,78.40
2023-05-06T01:43:51.076Z,78.30
2023-05-06T01:46:28.124Z,78.40
2023-05-06T01:48:59.345Z,78.40
2023-05-06T01:51:27.959Z,78.40
2023-05-06T01:53:58.252Z,78.40
2023-05-06T01:56:27.644Z,78.40
2023-05-06T01:58:59.388Z,78.40
2023-05-06T02:01:28.705Z,78.40
2023-05-06T02:03:57.564Z,78.40
2023-05-06T02:06:27.066Z,78.40
2023-05-06T02:08:57.805Z,78.50
2023-05-06T02:11:29.884Z,78.40
2023-05-06T02:14:04.821Z,78.50
2023-05-06T02:16:36.265Z,78.40
2023-05-06T02:19:06.061Z,78.40
2023-05-06T02:21:35.280Z,78.30
2023-05-06T02:24:05.839Z,78.20
2023-05-06T02:26:35.407Z,78.20
2023-05-06T02:29:06.533Z,78.20
2023-05-06T02:31:36.297Z,78.20
2023-05-06T02:34:07.368Z,78.20
2023-05-06T02:36:38.359Z,78.10
2023-05-06T02:39:12.308Z,78.00
2023-05-06T02:41:41.606Z,78.00
2023-05-06T02:44:10.788Z,77.90
2023-05-06T02:46:40.045Z,78.00
2023-05-06T02:49:10.750Z,78.10
2023-05-06T02:51:39.237Z,78.00
2023-05-06T02:54:10.974Z,78.10
2023-05-06T02:56:39.807Z,78.10
2023-05-06T02:59:09.722Z,78.20
2023-05-06T03:01:38.709Z,78.20
2023-05-06T03:04:08.672Z,78.30
2023-05-06T03:06:37.567Z,78.50
2023-05-06T03:09:07.457Z,78.50
2023-05-06T03:11:38.537Z,78.60
2023-05-06T03:14:08.156Z,78.60
2023-05-06T03:16:37.074Z,78.60
2023-05-06T03:19:08.764Z,78.50
2023-05-06T03:21:37.927Z,78.40
2023-05-06T03:24:06.968Z,78.40
2023-05-06T03:26:38.514Z,78.30
2023-05-06T03:29:07.986Z,78.30
2023-05-06T03:31:38.748Z,78.30
2023-05-06T03:34:09.412Z,78.20
2023-05-06T03:36:40.631Z,78.80
2023-05-06T03:39:10.486Z,78.80
2023-05-06T03:41:45.330Z,78.80
2023-05-06T03:44:14.305Z,78.80
2023-05-06T03:46:43.768Z,78.80
2023-05-06T03:49:13.498Z,78.70
2023-05-06T03:51:42.913Z,78.80
2023-05-06T03:54:11.552Z,78.90
2023-05-06T03:56:41.931Z,78.90
2023-05-06T03:59:11.867Z,78.80
2023-05-06T04:01:43.489Z,78.80
2023-05-06T04:04:14.524Z,78.90
2023-05-06T04:06:42.699Z,78.90
2023-05-06T04:09:11.006Z,79.00
2023-05-06T04:11:41.081Z,78.30
2023-05-06T04:14:13.826Z,78.40
2023-05-06T04:16:44.229Z,78.40
2023-05-06T04:19:13.062Z,78.40
2023-05-06T04:21:42.194Z,78.40
2023-05-06T04:24:13.754Z,78.40
2023-05-06T04:26:42.868Z,78.50
2023-05-06T04:29:16.217Z,78.80
2023-05-06T04:31:55.957Z,79.30
2023-05-06T04:34:27.939Z,79.70
2023-05-06T04:37:01.003Z,79.80
2023-05-06T04:39:39.382Z,79.80
2023-05-06T04:42:09.940Z,79.70
2023-05-06T04:44:48.930Z,79.20
2023-05-06T04:47:21.215Z,78.90
2023-05-06T04:49:54.126Z,78.00
2023-05-06T04:52:26.312Z,77.40
2023-05-06T04:54:55.227Z,76.70
2023-05-06T04:57:25.874Z,76.80
2023-05-06T05:00:00.630Z,75.20
2023-05-06T05:02:30.935Z,74.50
2023-05-06T05:05:01.101Z,73.20
2023-05-06T05:07:30.294Z,72.40
2023-05-06T05:10:02.048Z,71.00
2023-05-06T05:12:32.553Z,70.80
2023-05-06T05:15:03.301Z,71.00
2023-05-06T05:17:32.216Z,71.30
2023-05-06T05:20:01.789Z,71.40
2023-05-06T05:22:32.324Z,71.40
2023-05-06T05:25:01.576Z,71.60
2023-05-06T05:27:30.902Z,71.40
2023-05-06T05:30:01.917Z,71.20
2023-05-06T05:32:37.552Z,71.40
2023-05-06T05:35:10.942Z,71.60
2023-05-06T05:37:42.005Z,71.60
2023-05-06T05:40:12.923Z,71.40
2023-05-06T05:42:43.515Z,71.40
2023-05-06T05:45:21.285Z,70.90
2023-05-06T05:47:53.879Z,70.40
2023-05-06T05:50:26.324Z,71.00
2023-05-06T05:52:59.562Z,70.90
2023-05-06T05:55:31.948Z,71.00
2023-05-06T05:58:00.870Z,71.30
2023-05-06T06:00:31.063Z,71.40
2023-05-06T06:03:10.206Z,71.70
2023-05-06T06:05:40.664Z,71.80
2023-05-06T06:08:10.118Z,72.10
2023-05-06T06:10:42.093Z,71.70
2023-05-06T06:13:17.310Z,71.30
2023-05-06T06:15:46.725Z,69.10
2023-05-06T06:18:18.428Z,69.70
2023-05-06T06:20:46.803Z,68.70
2023-05-06T06:23:16.138Z,67.40
2023-05-06T06:25:45.264Z,67.20
2023-05-06T06:28:13.675Z,67.70
2023-05-06T06:30:44.041Z,65.80
2023-05-06T06:33:12.952Z,65.30
2023-05-06T06:35:44.014Z,64.20
2023-05-06T06:38:13.503Z,62.50
2023-05-06T06:40:42.218Z,62.20
2023-05-06T06:43:11.904Z,61.40
2023-05-06T06:46:03.898Z,61.00
2023-05-06T06:48:32.974Z,61.60
2023-05-06T06:51:04.066Z,61.30
2023-05-06T06:53:34.296Z,60.20
2023-05-06T06:56:05.797Z,60.30
2023-05-06T06:58:36.089Z,60.00
2023-05-06T07:01:05.715Z,57.70
2023-05-06T07:03:34.905Z,53.90
2023-05-06T07:06:05.774Z,52.90
2023-05-06T07:08:34.379Z,51.70
2023-05-06T07:11:03.074Z,50.60
2023-05-06T07:13:31.651Z,51.20
2023-05-06T07:16:00.633Z,51.50
2023-05-06T07:18:29.045Z,51.90
2023-05-06T07:20:57.792Z,51.80
2023-05-06T07:23:42.696Z,52.20
2023-05-06T07:26:12.270Z,53.60
2023-05-06T07:28:41.806Z,53.40
2023-05-06T07:31:10.835Z,51.20
2023-05-06T07:33:40.508Z,51.10
2023-05-06T07:36:09.483Z,50.90
2023-05-06T07:38:38.790Z,50.30
2023-05-06T07:41:09.100Z,49.70
2023-05-06T07:43:37.587Z,49.40
2023-05-06T07:46:06.734Z,49.50
2023-05-06T07:48:35.116Z,49.40
2023-05-06T07:51:04.334Z,49.70
2023-05-06T07:53:33.983Z,48.60
2023-05-06T07:56:04.063Z,48.50
2023-05-06T07:58:34.528Z,48.60
2023-05-06T08:01:03.463Z,48.00
2023-05-06T08:03:32.646Z,47.50
2023-05-06T08:06:02.862Z,45.60
2023-05-06T08:08:32.347Z,47.30
2023-05-06T08:11:04.160Z,47.70
2023-05-06T08:13:34.803Z,46.70
2023-05-06T08:16:07.311Z,45.30
2023-05-06T08:18:36.315Z,44.30
2023-05-06T08:21:04.921Z,44.70
2023-05-06T08:23:34.213Z,44.80
2023-05-06T08:26:03.741Z,43.60
2023-05-06T08:28:33.780Z,43.50
2023-05-06T08:31:02.538Z,43.90
2023-05-06T08:33:31.934Z,42.50
2023-05-06T08:36:00.816Z,42.30
2023-05-06T08:38:31.505Z,41.90
2023-05-06T08:41:04.841Z,41.50
2023-05-06T08:43:41.850Z,41.60
2023-05-06T08:46:11.066Z,41.60
2023-05-06T08:48:45.178Z,41.80
2023-05-06T08:51:19.943Z,40.80
2023-05-06T08:53:50.889Z,40.40
2023-05-06T08:56:21.510Z,39.10
2023-05-06T08:58:53.044Z,38.90
2023-05-06T09:01:21.529Z,38.90
2023-05-06T09:03:51.373Z,39.30
2023-05-06T09:06:20.036Z,39.00
2023-05-06T09:08:49.075Z,39.20
2023-05-06T09:11:25.943Z,39.20
2023-05-06T09:14:10.436Z,38.80
2023-05-06T09:16:39.470Z,38.10
2023-05-06T09:19:08.161Z,37.80
2023-05-06T09:21:38.082Z,37.60
2023-05-06T09:24:08.132Z,38.20
2023-05-06T09:26:38.634Z,41.00
2023-05-06T09:29:09.014Z,41.70
2023-05-06T09:31:43.650Z,43.40
2023-05-06T09:34:14.472Z,44.30
2023-05-06T09:36:43.491Z,44.70
2023-05-06T09:39:12.467Z,44.70
2023-05-06T09:41:42.071Z,42.40
2023-05-06T09:44:14.119Z,41.10
2023-05-06T09:46:45.292Z,39.00
2023-05-06T09:49:15.344Z,37.40
2023-05-06T09:51:48.038Z,36.50
2023-05-06T09:54:20.066Z,38.30
2023-05-06T09:56:50.579Z,37.30
2023-05-06T09:59:23.648Z,36.10
2023-05-06T10:01:53.764Z,36.00
2023-05-06T10:04:26.302Z,36.90
2023-05-06T10:06:57.721Z,37.10
2023-05-06T10:09:27.309Z,37.20
2023-05-06T10:11:56.601Z,36.40
2023-05-06T10:14:27.067Z,36.80
2023-05-06T10:16:56.429Z,34.90
2023-05-06T10:19:27.702Z,34.30
2023-05-06T10:22:04.470Z,33.50
2023-05-06T10:24:43.013Z,34.10
2023-05-06T10:27:15.184Z,34.00
2023-05-06T10:29:45.533Z,34.80
2023-05-06T10:32:14.634Z,34.80
2023-05-06T10:34:57.034Z,35.30
2023-05-06T10:37:29.859Z,34.60
2023-05-06T10:40:02.067Z,32.50
2023-05-06T10:42:35.523Z,34.00
2023-05-06T10:45:06.536Z,35.10
2023-05-06T10:48:10.991Z,35.70
2023-05-06T10:50:46.822Z,37.20
2023-05-06T10:53:15.649Z,39.20
2023-05-06T10:55:44.234Z,38.80
2023-05-06T10:58:16.323Z,37.80
2023-05-06T11:00:55.545Z,36.90
2023-05-06T11:03:25.479Z,36.00
2023-05-06T11:05:54.348Z,35.30
2023-05-06T11:08:24.684Z,35.10
2023-05-06T11:10:54.970Z,34.30
2023-05-06T11:13:28.546Z,33.00
2023-05-06T11:16:01.906Z,31.20
2023-05-06T11:18:51.557Z,31.10
2023-05-06T11:21:39.851Z,31.00
2023-05-06T11:24:13.532Z,31.20
2023-05-06T11:26:43.540Z,31.50
2023-05-06T11:29:13.578Z,32.20
2023-05-06T11:31:46.230Z,32.20
2023-05-06T11:34:22.184Z,31.80
2023-05-06T11:36:58.699Z,31.50
2023-05-06T11:39:30.597Z,31.00
2023-05-06T11:42:03.933Z,31.70
2023-05-06T11:44:35.446Z,31.70
2023-05-06T11:47:07.733Z,30.40
2023-05-06T11:49:42.283Z,31.00
2023-05-06T11:52:11.730Z,30.50
2023-05-06T11:54:42.496Z,30.10
2023-05-06T11:57:12.221Z,30.80
2023-05-06T11:59:42.882Z,30.80
2023-05-06T12:02:18.171Z,30.80
2023-05-06T12:04:56.719Z,31.40
2023-05-06T12:07:25.975Z,32.00
2023-05-06T12:09:56.305Z,32.60
2023-05-06T12:12:28.554Z,32.30
2023-05-06T12:14:58.212Z,32.50
2023-05-06T12:17:31.008Z,32.50
2023-05-06T12:20:00.773Z,32.50
2023-05-06T12:22:31.669Z,32.40
2023-05-06T12:25:00.687Z,34.00
2023-05-06T12:27:37.240Z,34.00
2023-05-06T12:30:10.615Z,35.10
2023-05-06T12:32:58.370Z,35.40
2023-05-06T12:35:29.937Z,34.70
2023-05-06T12:37:59.102Z,35.40
2023-05-06T12:40:34.393Z,36.10
2023-05-06T12:43:03.304Z,37.10
2023-05-06T12:45:32.233Z,36.30
2023-05-06T12:48:05.446Z,35.40
2023-05-06T12:50:36.282Z,35.20
2023-05-06T12:53:05.958Z,35.80
2023-05-06T12:55:38.349Z,36.70
2023-05-06T12:58:17.224Z,36.90
2023-05-06T13:00:50.804Z,37.90
2023-05-06T13:03:21.301Z,38.40
2023-05-06T13:05:51.909Z,38.80
2023-05-06T13:08:21.667Z,40.70
2023-05-06T13:10:51.469Z,40.60
2023-05-06T13:13:20.143Z,40.00
2023-05-06T13:15:51.694Z,37.50
2023-05-06T13:18:25.891Z,36.50
2023-05-06T13:20:54.513Z,36.30
2023-05-06T13:23:23.124Z,36.50
2023-05-06T13:26:03.484Z,37.50
2023-05-06T13:28:39.283Z,38.20
2023-05-06T13:31:07.962Z,37.80
2023-05-06T13:33:42.007Z,36.60
2023-05-06T13:36:12.242Z,36.30
2023-05-06T13:38:41.540Z,34.30
2023-05-06T13:41:13.033Z,33.00
2023-05-06T13:43:42.109Z,33.30
2023-05-06T13:46:12.534Z,32.80
2023-05-06T13:48:45.157Z,32.10
2023-05-06T13:51:14.437Z,31.50
2023-05-06T13:53:44.064Z,30.80
2023-05-06T13:56:13.197Z,32.00
2023-05-06T13:58:46.804Z,32.20
2023-05-06T14:01:17.954Z,32.50
2023-05-06T14:03:50.896Z,32.70
2023-05-06T14:06:21.278Z,34.00
2023-05-06T14:08:49.719Z,35.50
2023-05-06T14:11:19.537Z,36.80
2023-05-06T14:13:48.706Z,37.40
2023-05-06T14:16:17.782Z,38.30
2023-05-06T14:18:48.183Z,38.40
2023-05-06T14:21:24.373Z,38.80
2023-05-06T14:23:56.670Z,39.40
2023-05-06T14:26:25.811Z,39.30
2023-05-06T14:28:55.338Z,40.00
2023-05-06T14:31:27.087Z,40.90
2023-05-06T14:33:57.504Z,40.50
2023-05-06T14:36:26.078Z,41.30
2023-05-06T14:38:56.728Z,41.30
2023-05-06T14:41:25.777Z,42.60
2023-05-06T14:43:55.547Z,43.40
2023-05-06T14:46:27.727Z,43.60
2023-05-06T14:49:01.882Z,43.10
2023-05-06T14:51:31.472Z,43.70
2023-05-06T14:54:02.543Z,44.10
2023-05-06T14:56:36.061Z,44.80
2023-05-06T14:59:06.587Z,45.20
2023-05-06T15:01:37.550Z,45.40
2023-05-06T15:04:10.026Z,45.90
2023-05-06T15:06:39.831Z,46.30
2023-05-06T15:09:11.860Z,45.80
2023-05-06T15:11:41.237Z,45.90
2023-05-06T15:14:11.151Z,45.80
2023-05-06T15:16:41.442Z,46.20
2023-05-06T15:19:12.870Z,46.40
2023-05-06T15:21:44.402Z,45.90
2023-05-06T15:24:16.153Z,46.00
2023-05-06T15:26:45.258Z,46.50
2023-05-06T15:29:17.647Z,46.20
2023-05-06T15:31:51.875Z,45.80
2023-05-06T15:34:22.492Z,46.60
2023-05-06T15:36:56.432Z,46.50
2023-05-06T15:39:27.043Z,46.80
2023-05-06T15:42:03.655Z,47.00
2023-05-06T15:44:32.821Z,46.90
2023-05-06T15:47:04.393Z,46.70
2023-05-06T15:49:51.478Z,46.80
2023-05-06T15:52:23.068Z,46.00
2023-05-06T15:54:57.724Z,46.10
2023-05-06T15:57:30.151Z,45.90
2023-05-06T15:59:59.537Z,46.10
2023-05-06T16:02:28.804Z,46.30
2023-05-06T16:05:04.059Z,47.10
2023-05-06T16:07:33.473Z,47.20
2023-05-06T16:10:03.725Z,47.60
2023-05-06T16:12:32.783Z,46.70
2023-05-06T16:15:01.372Z,46.60
2023-05-06T16:17:33.649Z,46.60
2023-05-06T16:20:04.581Z,47.10
2023-05-06T16:22:33.949Z,46.80
2023-05-06T16:25:05.092Z,46.90
2023-05-06T16:27:35.776Z,46.60
2023-05-06T16:30:06.166Z,46.40
2023-05-06T16:32:36.709Z,47.30
2023-05-06T16:35:09.540Z,47.40
2023-05-06T16:37:39.582Z,47.50
2023-05-06T16:40:11.534Z,47.50
2023-05-06T16:42:45.429Z,47.60
2023-05-06T16:45:14.328Z,48.10
2023-05-06T16:47:44.419Z,48.70
2023-05-06T16:50:16.684Z,49.20
2023-05-06T16:52:46.394Z,49.60
2023-05-06T16:55:15.205Z,49.90
2023-05-06T16:57:48.309Z,49.70
2023-05-06T17:00:21.229Z,50.40
2023-05-06T17:02:50.015Z,50.70
2023-05-06T17:05:22.008Z,51.00
2023-05-06T17:07:51.456Z,51.80
2023-05-06T17:10:22.697Z,52.30
2023-05-06T17:12:54.735Z,52.00
2023-05-06T17:15:27.282Z,51.90
2023-05-06T17:17:57.932Z,51.90
2023-05-06T17:20:29.304Z,52.10
2023-05-06T17:23:02.408Z,52.70
2023-05-06T17:25:31.196Z,52.70
2023-05-06T17:28:01.662Z,52.80
2023-05-06T17:30:30.882Z,53.10
2023-05-06T17:33:03.484Z,53.40
2023-05-06T17:35:34.465Z,53.20
2023-05-06T17:38:03.169Z,53.50
2023-05-06T17:40:32.075Z,54.20
2023-05-06T17:43:03.744Z,54.10
2023-05-06T17:45:32.460Z,54.40
2023-05-06T17:48:01.379Z,54.70
2023-05-06T17:50:30.703Z,55.00
2023-05-06T17:53:03.910Z,55.50
2023-05-06T17:55:38.300Z,56.00
2023-05-06T17:58:09.381Z,56.50
2023-05-06T18:00:39.803Z,57.20
2023-05-06T18:03:09.795Z,57.50
2023-05-06T18:05:43.590Z,57.90
2023-05-06T18:08:13.994Z,58.80
2023-05-06T18:10:44.702Z,59.40
2023-05-06T18:13:17.270Z,60.10
2023-05-06T18:15:50.137Z,60.40
2023-05-06T18:18:18.842Z,61.60
2023-05-06T18:20:50.488Z,62.30
2023-05-06T18:23:22.221Z,63.00
2023-05-06T18:25:53.719Z,63.40
2023-05-06T18:28:25.231Z,63.50
2023-05-06T18:30:55.850Z,64.00
2023-05-06T18:33:24.842Z,64.10
2023-05-06T18:35:56.016Z,64.10
2023-05-06T18:38:29.454Z,64.00
2023-05-06T18:41:05.539Z,64.40
2023-05-06T18:43:39.432Z,64.40
2023-05-06T18:46:09.817Z,64.50
2023-05-06T18:48:41.085Z,65.10
2023-05-06T18:54:03.295Z,65.70
2023-05-06T18:56:36.869Z,65.80
2023-05-06T18:59:10.388Z,66.30
2023-05-06T19:01:40.283Z,66.70
2023-05-06T19:04:09.632Z,66.90
2023-05-06T19:06:40.406Z,67.10
2023-05-06T19:09:13.331Z,67.20
2023-05-06T19:11:43.473Z,67.40
2023-05-06T19:14:14.213Z,67.60
2023-05-06T19:16:42.862Z,67.80
2023-05-06T19:19:12.897Z,68.10
2023-05-06T19:21:43.237Z,68.50
2023-05-06T19:24:13.831Z,68.80
2023-05-06T19:26:42.898Z,68.60
2023-05-06T19:29:14.928Z,68.80
2023-05-06T19:31:46.662Z,68.90
2023-05-06T19:34:15.483Z,69.20
2023-05-06T19:36:44.549Z,69.30
2023-05-06T19:39:18.014Z,69.10
2023-05-06T19:41:50.619Z,69.70
2023-05-06T19:44:22.574Z,69.50
2023-05-06T19:46:55.237Z,69.40
2023-05-06T19:49:23.934Z,69.50
2023-05-06T19:51:53.647Z,69.60
2023-05-06T19:54:27.767Z,69.90
2023-05-06T19:56:56.491Z,69.80
2023-05-06T19:59:25.446Z,69.90
2023-05-06T20:01:54.916Z,69.90
2023-05-06T20:04:26.695Z,69.90
2023-05-06T20:06:56.176Z,69.90
2023-05-06T20:09:27.790Z,69.90
2023-05-06T20:11:58.719Z,70.00
2023-05-06T20:14:27.934Z,70.30
2023-05-06T20:16:58.886Z,70.50
2023-05-06T20:19:30.736Z,70.50
2023-05-06T20:22:04.593Z,70.60
2023-05-06T20:24:35.052Z,70.60
2023-05-06T20:27:03.859Z,70.60
2023-05-06T20:29:34.213Z,70.50
2023-05-06T20:32:03.598Z,70.50
2023-05-06T20:34:33.782Z,70.50
2023-05-06T20:37:04.788Z,70.50
2023-05-06T20:39:38.064Z,70.70
2023-05-06T20:42:09.930Z,70.90
2023-05-06T20:44:40.899Z,70.70
2023-05-06T20:47:12.730Z,70.80
2023-05-06T20:49:41.800Z,70.80
2023-05-06T20:52:14.790Z,70.90
2023-05-06T20:54:46.801Z,71.00
2023-05-06T20:57:18.385Z,71.10
2023-05-06T20:59:52.918Z,71.20
2023-05-06T21:02:23.015Z,71.30
2023-05-06T21:04:55.511Z,71.40
2023-05-06T21:07:26.499Z,71.40
2023-05-06T21:09:58.780Z,71.60
2023-05-06T21:12:27.466Z,71.50
2023-05-06T21:14:56.247Z,71.60
2023-05-06T21:17:32.661Z,71.60
2023-05-06T21:20:03.540Z,71.80
2023-05-06T21:22:40.832Z,71.70
2023-05-06T21:25:13.242Z,71.80
2023-05-06T21:27:42.009Z,71.70
2023-05-06T21:30:13.014Z,71.90
2023-05-06T21:32:46.028Z,72.10
2023-05-06T21:35:17.751Z,71.90
2023-05-06T21:37:47.154Z,72.10
2023-05-06T21:40:17.343Z,72.10
2023-05-06T21:42:48.046Z,72.40
2023-05-06T21:45:17.928Z,72.50
2023-05-06T21:47:48.077Z,72.50
2023-05-06T21:50:17.626Z,72.60
2023-05-06T21:52:48.333Z,72.60
2023-05-06T21:55:19.238Z,72.70
2023-05-06T21:57:49.870Z,72.70
2023-05-06T22:00:18.898Z,72.80
2023-05-06T22:02:48.697Z,72.80
2023-05-06T22:05:17.870Z,72.90
2023-05-06T22:07:47.048Z,73.10
2023-05-06T22:10:18.455Z,73.20
2023-05-06T22:12:47.143Z,73.20
2023-05-06T22:15:16.251Z,73.30
2023-05-06T22:17:44.947Z,73.40
2023-05-06T22:20:15.418Z,73.30
2023-05-06T22:22:46.104Z,73.40
2023-05-06T22:25:14.909Z,73.50
2023-05-06T22:27:47.419Z,73.50
2023-05-06T22:30:17.209Z,73.50
2023-05-06T22:32:47.180Z,73.50
2023-05-06T22:35:20.761Z,73.50
2023-05-06T22:37:49.271Z,73.50
2023-05-06T22:40:20.075Z,73.50
2023-05-06T22:42:53.747Z,73.50
2023-05-06T22:45:24.550Z,73.60
2023-05-06T22:47:53.004Z,73.60
2023-05-06T22:50:21.811Z,73.70
2023-05-06T22:52:52.193Z,73.70
2023-05-06T22:55:28.159Z,73.70
2023-05-06T22:58:01.723Z,73.60
2023-05-06T23:00:31.901Z,73.70
2023-05-06T23:03:07.698Z,73.50
2023-05-06T23:05:37.907Z,73.50
2023-05-06T23:08:12.063Z,73.50
2023-05-06T23:10:41.988Z,73.60
2023-05-06T23:13:18.176Z,73.70
2023-05-06T23:15:47.671Z,73.90
2023-05-06T23:18:20.713Z,74.00
2023-05-06T23:20:49.978Z,74.10
2023-05-06T23:23:20.420Z,74.10
2023-05-06T23:25:51.127Z,74.20
2023-05-06T23:28:21.369Z,74.10
2023-05-06T23:30:52.581Z,74.10
2023-05-06T23:33:21.387Z,74.10
2023-05-06T23:35:51.008Z,74.10
2023-05-06T23:38:19.312Z,74.10
2023-05-06T23:40:50.392Z,74.20
2023-05-06T23:43:22.378Z,74.30
2023-05-06T23:45:51.999Z,74.30
2023-05-06T23:48:20.854Z,74.40
2023-05-06T23:50:51.279Z,74.30
2023-05-06T23:53:19.996Z,74.20
2023-05-06T23:55:49.724Z,74.20
2023-05-06T23:58:21.169Z,74.20
